<?xml version="1.0" encoding="UTF-8" standalone="no" ?>
<gpx xmlns="http://www.topografix.com/GPX/1/1" xmlns:xsi="http://www.w3.org/2001/XMLSchema-instance" xsi:schemaLocation="http://www.topografix.com/GPX/1/1 http://www.topografix.com/GPX/1/1/gpx.xsd" version="1.1" creator="VisuGPX - https://www.visugpx.com">
  <metadata>
    <name>Les étangs de Tronçais et Saloup</name>
    <desc><![CDATA[seulement 10 % de goudron
à voir: étang de Tronçais, Font des Porchers, étang de Saloup]]></desc>
  </metadata>
  <trk>
    <name><![CDATA[2014-12-05 Tronçais 001]]></name>
    <trkseg>
      <trkpt lat="46.64002" lon="2.72291">
        <ele>293.82</ele>
        <time>2014-12-05T11:33:43Z</time>
      </trkpt>
      <trkpt lat="46.63994" lon="2.72297">
        <ele>234.7</ele>
        <time>2014-12-05T11:35:41Z</time>
      </trkpt>
      <trkpt lat="46.63986" lon="2.72305">
        <ele>233.74</ele>
        <time>2014-12-05T11:35:52Z</time>
      </trkpt>
      <trkpt lat="46.63974" lon="2.72332">
        <ele>232.78</ele>
        <time>2014-12-05T11:36:07Z</time>
      </trkpt>
      <trkpt lat="46.63969" lon="2.72347">
        <ele>232.3</ele>
        <time>2014-12-05T11:36:17Z</time>
      </trkpt>
      <trkpt lat="46.6397" lon="2.72371">
        <ele>232.3</ele>
        <time>2014-12-05T11:36:31Z</time>
      </trkpt>
      <trkpt lat="46.63971" lon="2.72395">
        <ele>232.3</ele>
        <time>2014-12-05T11:36:45Z</time>
      </trkpt>
      <trkpt lat="46.63973" lon="2.72429">
        <ele>231.81</ele>
        <time>2014-12-05T11:37:02Z</time>
      </trkpt>
      <trkpt lat="46.63964" lon="2.72449">
        <ele>231.33</ele>
        <time>2014-12-05T11:37:12Z</time>
      </trkpt>
      <trkpt lat="46.63951" lon="2.72455">
        <ele>230.85</ele>
        <time>2014-12-05T11:37:26Z</time>
      </trkpt>
      <trkpt lat="46.63942" lon="2.72439">
        <ele>232.3</ele>
        <time>2014-12-05T11:37:41Z</time>
      </trkpt>
      <trkpt lat="46.63935" lon="2.72424">
        <ele>232.78</ele>
        <time>2014-12-05T11:37:53Z</time>
      </trkpt>
      <trkpt lat="46.63926" lon="2.72405">
        <ele>233.26</ele>
        <time>2014-12-05T11:38:07Z</time>
      </trkpt>
      <trkpt lat="46.63916" lon="2.72379">
        <ele>233.26</ele>
        <time>2014-12-05T11:38:22Z</time>
      </trkpt>
      <trkpt lat="46.63911" lon="2.72355">
        <ele>233.26</ele>
        <time>2014-12-05T11:38:35Z</time>
      </trkpt>
      <trkpt lat="46.63907" lon="2.72321">
        <ele>231.81</ele>
        <time>2014-12-05T11:38:48Z</time>
      </trkpt>
      <trkpt lat="46.63903" lon="2.72296">
        <ele>231.33</ele>
        <time>2014-12-05T11:39:01Z</time>
      </trkpt>
      <trkpt lat="46.63895" lon="2.72284">
        <ele>229.89</ele>
        <time>2014-12-05T11:39:19Z</time>
      </trkpt>
      <trkpt lat="46.63888" lon="2.72271">
        <ele>229.41</ele>
        <time>2014-12-05T11:39:48Z</time>
      </trkpt>
      <trkpt lat="46.63879" lon="2.72259">
        <ele>228.93</ele>
        <time>2014-12-05T11:40:00Z</time>
      </trkpt>
      <trkpt lat="46.63872" lon="2.72251">
        <ele>228.93</ele>
        <time>2014-12-05T11:40:14Z</time>
      </trkpt>
      <trkpt lat="46.63851" lon="2.72237">
        <ele>228.93</ele>
        <time>2014-12-05T11:40:33Z</time>
      </trkpt>
      <trkpt lat="46.63837" lon="2.72215">
        <ele>228.93</ele>
        <time>2014-12-05T11:40:49Z</time>
      </trkpt>
      <trkpt lat="46.63829" lon="2.72194">
        <ele>228.93</ele>
        <time>2014-12-05T11:41:02Z</time>
      </trkpt>
      <trkpt lat="46.63829" lon="2.72168">
        <ele>228.45</ele>
        <time>2014-12-05T11:41:15Z</time>
      </trkpt>
      <trkpt lat="46.63827" lon="2.72125">
        <ele>228.45</ele>
        <time>2014-12-05T11:41:36Z</time>
      </trkpt>
      <trkpt lat="46.6382" lon="2.72105">
        <ele>228.45</ele>
        <time>2014-12-05T11:41:48Z</time>
      </trkpt>
      <trkpt lat="46.63806" lon="2.72073">
        <ele>227.97</ele>
        <time>2014-12-05T11:42:05Z</time>
      </trkpt>
      <trkpt lat="46.63789" lon="2.72054">
        <ele>227.97</ele>
        <time>2014-12-05T11:42:21Z</time>
      </trkpt>
      <trkpt lat="46.63769" lon="2.72035">
        <ele>227.97</ele>
        <time>2014-12-05T11:42:36Z</time>
      </trkpt>
      <trkpt lat="46.63754" lon="2.72026">
        <ele>229.41</ele>
        <time>2014-12-05T11:42:48Z</time>
      </trkpt>
      <trkpt lat="46.63736" lon="2.72017">
        <ele>228.93</ele>
        <time>2014-12-05T11:43:03Z</time>
      </trkpt>
      <trkpt lat="46.63717" lon="2.72015">
        <ele>228.93</ele>
        <time>2014-12-05T11:43:18Z</time>
      </trkpt>
      <trkpt lat="46.63703" lon="2.72007">
        <ele>228.93</ele>
        <time>2014-12-05T11:43:27Z</time>
      </trkpt>
      <trkpt lat="46.63689" lon="2.72011">
        <ele>227.97</ele>
        <time>2014-12-05T11:43:37Z</time>
      </trkpt>
      <trkpt lat="46.63667" lon="2.72003">
        <ele>228.93</ele>
        <time>2014-12-05T11:43:53Z</time>
      </trkpt>
      <trkpt lat="46.63646" lon="2.71994">
        <ele>228.93</ele>
        <time>2014-12-05T11:44:09Z</time>
      </trkpt>
      <trkpt lat="46.63624" lon="2.71986">
        <ele>229.41</ele>
        <time>2014-12-05T11:44:26Z</time>
      </trkpt>
      <trkpt lat="46.63599" lon="2.71975">
        <ele>229.89</ele>
        <time>2014-12-05T11:44:43Z</time>
      </trkpt>
      <trkpt lat="46.63573" lon="2.7197">
        <ele>229.89</ele>
        <time>2014-12-05T11:45:02Z</time>
      </trkpt>
      <trkpt lat="46.63547" lon="2.71991">
        <ele>230.37</ele>
        <time>2014-12-05T11:45:23Z</time>
      </trkpt>
      <trkpt lat="46.63532" lon="2.72009">
        <ele>230.37</ele>
        <time>2014-12-05T11:45:38Z</time>
      </trkpt>
      <trkpt lat="46.63518" lon="2.7203">
        <ele>229.41</ele>
        <time>2014-12-05T11:45:52Z</time>
      </trkpt>
      <trkpt lat="46.63506" lon="2.72056">
        <ele>229.41</ele>
        <time>2014-12-05T11:46:06Z</time>
      </trkpt>
      <trkpt lat="46.63494" lon="2.72086">
        <ele>228.93</ele>
        <time>2014-12-05T11:46:22Z</time>
      </trkpt>
      <trkpt lat="46.63485" lon="2.72116">
        <ele>227.97</ele>
        <time>2014-12-05T11:46:38Z</time>
      </trkpt>
      <trkpt lat="46.63477" lon="2.72134">
        <ele>227.97</ele>
        <time>2014-12-05T11:46:50Z</time>
      </trkpt>
      <trkpt lat="46.63473" lon="2.72146">
        <ele>227.97</ele>
        <time>2014-12-05T11:47:09Z</time>
      </trkpt>
      <trkpt lat="46.63469" lon="2.72164">
        <ele>227.97</ele>
        <time>2014-12-05T11:47:23Z</time>
      </trkpt>
      <trkpt lat="46.63457" lon="2.72192">
        <ele>227.97</ele>
        <time>2014-12-05T11:47:37Z</time>
      </trkpt>
      <trkpt lat="46.63447" lon="2.72226">
        <ele>227.97</ele>
        <time>2014-12-05T11:47:57Z</time>
      </trkpt>
      <trkpt lat="46.63436" lon="2.72243">
        <ele>227.97</ele>
        <time>2014-12-05T11:48:10Z</time>
      </trkpt>
      <trkpt lat="46.63427" lon="2.7226">
        <ele>227.97</ele>
        <time>2014-12-05T11:48:24Z</time>
      </trkpt>
      <trkpt lat="46.63403" lon="2.72285">
        <ele>228.93</ele>
        <time>2014-12-05T11:48:46Z</time>
      </trkpt>
      <trkpt lat="46.63383" lon="2.72307">
        <ele>230.37</ele>
        <time>2014-12-05T11:49:03Z</time>
      </trkpt>
      <trkpt lat="46.63366" lon="2.72321">
        <ele>230.37</ele>
        <time>2014-12-05T11:49:18Z</time>
      </trkpt>
      <trkpt lat="46.63358" lon="2.72336">
        <ele>230.85</ele>
        <time>2014-12-05T11:49:29Z</time>
      </trkpt>
      <trkpt lat="46.63345" lon="2.72356">
        <ele>232.3</ele>
        <time>2014-12-05T11:49:43Z</time>
      </trkpt>
      <trkpt lat="46.63341" lon="2.72371">
        <ele>232.78</ele>
        <time>2014-12-05T11:49:51Z</time>
      </trkpt>
      <trkpt lat="46.63341" lon="2.72385">
        <ele>233.26</ele>
        <time>2014-12-05T11:50:42Z</time>
      </trkpt>
      <trkpt lat="46.63339" lon="2.72405">
        <ele>233.26</ele>
        <time>2014-12-05T11:50:55Z</time>
      </trkpt>
      <trkpt lat="46.63335" lon="2.72434">
        <ele>232.78</ele>
        <time>2014-12-05T11:51:11Z</time>
      </trkpt>
      <trkpt lat="46.63336" lon="2.72459">
        <ele>232.78</ele>
        <time>2014-12-05T11:51:25Z</time>
      </trkpt>
      <trkpt lat="46.63336" lon="2.72491">
        <ele>231.33</ele>
        <time>2014-12-05T11:51:40Z</time>
      </trkpt>
      <trkpt lat="46.63341" lon="2.72515">
        <ele>231.33</ele>
        <time>2014-12-05T11:51:52Z</time>
      </trkpt>
      <trkpt lat="46.63348" lon="2.72543">
        <ele>231.33</ele>
        <time>2014-12-05T11:52:06Z</time>
      </trkpt>
      <trkpt lat="46.63358" lon="2.72573">
        <ele>230.85</ele>
        <time>2014-12-05T11:52:23Z</time>
      </trkpt>
      <trkpt lat="46.63369" lon="2.72594">
        <ele>230.85</ele>
        <time>2014-12-05T11:52:36Z</time>
      </trkpt>
      <trkpt lat="46.63377" lon="2.72613">
        <ele>230.85</ele>
        <time>2014-12-05T11:52:51Z</time>
      </trkpt>
      <trkpt lat="46.63378" lon="2.72628">
        <ele>230.37</ele>
        <time>2014-12-05T11:54:03Z</time>
      </trkpt>
      <trkpt lat="46.63389" lon="2.72649">
        <ele>230.37</ele>
        <time>2014-12-05T11:54:43Z</time>
      </trkpt>
      <trkpt lat="46.63402" lon="2.72678">
        <ele>231.33</ele>
        <time>2014-12-05T11:55:03Z</time>
      </trkpt>
      <trkpt lat="46.63416" lon="2.72705">
        <ele>231.33</ele>
        <time>2014-12-05T11:55:21Z</time>
      </trkpt>
      <trkpt lat="46.6343" lon="2.72728">
        <ele>231.33</ele>
        <time>2014-12-05T11:55:37Z</time>
      </trkpt>
      <trkpt lat="46.63444" lon="2.72754">
        <ele>231.33</ele>
        <time>2014-12-05T11:55:53Z</time>
      </trkpt>
      <trkpt lat="46.63448" lon="2.72771">
        <ele>231.33</ele>
        <time>2014-12-05T11:56:07Z</time>
      </trkpt>
      <trkpt lat="46.63452" lon="2.72775">
        <ele>230.85</ele>
        <time>2014-12-05T11:59:29Z</time>
      </trkpt>
      <trkpt lat="46.63459" lon="2.72789">
        <ele>230.85</ele>
        <time>2014-12-05T11:59:42Z</time>
      </trkpt>
      <trkpt lat="46.6346" lon="2.72803">
        <ele>230.85</ele>
        <time>2014-12-05T11:59:51Z</time>
      </trkpt>
      <trkpt lat="46.63462" lon="2.72825">
        <ele>230.85</ele>
        <time>2014-12-05T12:00:03Z</time>
      </trkpt>
      <trkpt lat="46.63467" lon="2.72862">
        <ele>230.85</ele>
        <time>2014-12-05T12:00:22Z</time>
      </trkpt>
      <trkpt lat="46.63468" lon="2.72891">
        <ele>229.41</ele>
        <time>2014-12-05T12:00:36Z</time>
      </trkpt>
      <trkpt lat="46.63469" lon="2.72912">
        <ele>229.41</ele>
        <time>2014-12-05T12:00:48Z</time>
      </trkpt>
      <trkpt lat="46.63471" lon="2.72938">
        <ele>229.41</ele>
        <time>2014-12-05T12:01:01Z</time>
      </trkpt>
      <trkpt lat="46.63473" lon="2.72968">
        <ele>229.41</ele>
        <time>2014-12-05T12:01:16Z</time>
      </trkpt>
      <trkpt lat="46.63456" lon="2.73002">
        <ele>229.41</ele>
        <time>2014-12-05T12:01:39Z</time>
      </trkpt>
      <trkpt lat="46.63447" lon="2.73015">
        <ele>229.41</ele>
        <time>2014-12-05T12:01:49Z</time>
      </trkpt>
      <trkpt lat="46.63432" lon="2.73051">
        <ele>228.93</ele>
        <time>2014-12-05T12:02:11Z</time>
      </trkpt>
      <trkpt lat="46.63422" lon="2.73075">
        <ele>228.93</ele>
        <time>2014-12-05T12:02:24Z</time>
      </trkpt>
      <trkpt lat="46.63411" lon="2.73106">
        <ele>228.93</ele>
        <time>2014-12-05T12:02:42Z</time>
      </trkpt>
      <trkpt lat="46.63398" lon="2.73136">
        <ele>228.45</ele>
        <time>2014-12-05T12:03:02Z</time>
      </trkpt>
      <trkpt lat="46.63369" lon="2.73141">
        <ele>227.97</ele>
        <time>2014-12-05T12:03:31Z</time>
      </trkpt>
      <trkpt lat="46.63355" lon="2.73142">
        <ele>227.49</ele>
        <time>2014-12-05T12:03:45Z</time>
      </trkpt>
      <trkpt lat="46.63339" lon="2.73144">
        <ele>227.49</ele>
        <time>2014-12-05T12:04:01Z</time>
      </trkpt>
      <trkpt lat="46.63324" lon="2.73146">
        <ele>227.49</ele>
        <time>2014-12-05T12:04:16Z</time>
      </trkpt>
      <trkpt lat="46.63304" lon="2.7315">
        <ele>228.45</ele>
        <time>2014-12-05T12:04:31Z</time>
      </trkpt>
      <trkpt lat="46.63286" lon="2.73159">
        <ele>228.45</ele>
        <time>2014-12-05T12:04:46Z</time>
      </trkpt>
      <trkpt lat="46.63275" lon="2.73162">
        <ele>228.93</ele>
        <time>2014-12-05T12:04:58Z</time>
      </trkpt>
      <trkpt lat="46.63256" lon="2.73162">
        <ele>229.89</ele>
        <time>2014-12-05T12:05:16Z</time>
      </trkpt>
      <trkpt lat="46.63245" lon="2.7316">
        <ele>230.37</ele>
        <time>2014-12-05T12:05:28Z</time>
      </trkpt>
      <trkpt lat="46.63236" lon="2.73156">
        <ele>230.37</ele>
        <time>2014-12-05T12:05:40Z</time>
      </trkpt>
      <trkpt lat="46.63218" lon="2.73143">
        <ele>231.33</ele>
        <time>2014-12-05T12:05:58Z</time>
      </trkpt>
      <trkpt lat="46.63209" lon="2.73128">
        <ele>231.33</ele>
        <time>2014-12-05T12:06:24Z</time>
      </trkpt>
      <trkpt lat="46.63193" lon="2.73118">
        <ele>231.33</ele>
        <time>2014-12-05T12:06:38Z</time>
      </trkpt>
      <trkpt lat="46.63179" lon="2.73119">
        <ele>232.3</ele>
        <time>2014-12-05T12:06:52Z</time>
      </trkpt>
      <trkpt lat="46.6316" lon="2.73121">
        <ele>233.26</ele>
        <time>2014-12-05T12:07:08Z</time>
      </trkpt>
      <trkpt lat="46.63147" lon="2.73119">
        <ele>233.74</ele>
        <time>2014-12-05T12:07:23Z</time>
      </trkpt>
      <trkpt lat="46.63141" lon="2.731">
        <ele>233.74</ele>
        <time>2014-12-05T12:07:37Z</time>
      </trkpt>
      <trkpt lat="46.63136" lon="2.73068">
        <ele>234.22</ele>
        <time>2014-12-05T12:07:58Z</time>
      </trkpt>
      <trkpt lat="46.63132" lon="2.73031">
        <ele>234.22</ele>
        <time>2014-12-05T12:08:14Z</time>
      </trkpt>
      <trkpt lat="46.63125" lon="2.73012">
        <ele>234.22</ele>
        <time>2014-12-05T12:08:25Z</time>
      </trkpt>
      <trkpt lat="46.6311" lon="2.72978">
        <ele>234.22</ele>
        <time>2014-12-05T12:08:44Z</time>
      </trkpt>
      <trkpt lat="46.631" lon="2.72954">
        <ele>233.26</ele>
        <time>2014-12-05T12:08:59Z</time>
      </trkpt>
      <trkpt lat="46.63089" lon="2.72934">
        <ele>232.78</ele>
        <time>2014-12-05T12:09:13Z</time>
      </trkpt>
      <trkpt lat="46.63075" lon="2.72917">
        <ele>232.78</ele>
        <time>2014-12-05T12:09:28Z</time>
      </trkpt>
      <trkpt lat="46.63062" lon="2.72904">
        <ele>232.78</ele>
        <time>2014-12-05T12:09:41Z</time>
      </trkpt>
      <trkpt lat="46.62984" lon="2.72889">
        <ele>236.62</ele>
        <time>2014-12-05T12:11:26Z</time>
      </trkpt>
      <trkpt lat="46.62975" lon="2.72889">
        <ele>236.62</ele>
        <time>2014-12-05T12:11:40Z</time>
      </trkpt>
      <trkpt lat="46.6296" lon="2.72886">
        <ele>236.62</ele>
        <time>2014-12-05T12:11:56Z</time>
      </trkpt>
      <trkpt lat="46.62936" lon="2.72883">
        <ele>235.66</ele>
        <time>2014-12-05T12:12:18Z</time>
      </trkpt>
      <trkpt lat="46.62916" lon="2.72873">
        <ele>235.66</ele>
        <time>2014-12-05T12:12:34Z</time>
      </trkpt>
      <trkpt lat="46.62908" lon="2.72867">
        <ele>237.58</ele>
        <time>2014-12-05T12:12:44Z</time>
      </trkpt>
      <trkpt lat="46.62892" lon="2.72859">
        <ele>238.06</ele>
        <time>2014-12-05T12:12:58Z</time>
      </trkpt>
      <trkpt lat="46.62872" lon="2.72854">
        <ele>238.54</ele>
        <time>2014-12-05T12:13:13Z</time>
      </trkpt>
      <trkpt lat="46.62849" lon="2.72845">
        <ele>239.51</ele>
        <time>2014-12-05T12:13:29Z</time>
      </trkpt>
      <trkpt lat="46.62828" lon="2.7284">
        <ele>240.47</ele>
        <time>2014-12-05T12:13:46Z</time>
      </trkpt>
      <trkpt lat="46.62808" lon="2.72836">
        <ele>240.95</ele>
        <time>2014-12-05T12:14:03Z</time>
      </trkpt>
      <trkpt lat="46.62792" lon="2.72835">
        <ele>240.95</ele>
        <time>2014-12-05T12:14:18Z</time>
      </trkpt>
      <trkpt lat="46.62783" lon="2.72834">
        <ele>239.51</ele>
        <time>2014-12-05T12:14:27Z</time>
      </trkpt>
      <trkpt lat="46.62766" lon="2.72832">
        <ele>238.54</ele>
        <time>2014-12-05T12:14:41Z</time>
      </trkpt>
      <trkpt lat="46.62748" lon="2.7283">
        <ele>239.99</ele>
        <time>2014-12-05T12:14:57Z</time>
      </trkpt>
      <trkpt lat="46.62726" lon="2.72824">
        <ele>240.95</ele>
        <time>2014-12-05T12:15:10Z</time>
      </trkpt>
      <trkpt lat="46.62705" lon="2.72817">
        <ele>241.43</ele>
        <time>2014-12-05T12:15:27Z</time>
      </trkpt>
      <trkpt lat="46.62687" lon="2.72811">
        <ele>241.91</ele>
        <time>2014-12-05T12:15:43Z</time>
      </trkpt>
      <trkpt lat="46.62674" lon="2.72806">
        <ele>241.91</ele>
        <time>2014-12-05T12:15:56Z</time>
      </trkpt>
      <trkpt lat="46.62652" lon="2.72801">
        <ele>241.91</ele>
        <time>2014-12-05T12:16:11Z</time>
      </trkpt>
      <trkpt lat="46.6264" lon="2.728">
        <ele>241.91</ele>
        <time>2014-12-05T12:16:22Z</time>
      </trkpt>
      <trkpt lat="46.6262" lon="2.72797">
        <ele>241.91</ele>
        <time>2014-12-05T12:16:37Z</time>
      </trkpt>
      <trkpt lat="46.62607" lon="2.72805">
        <ele>241.91</ele>
        <time>2014-12-05T12:16:52Z</time>
      </trkpt>
      <trkpt lat="46.62595" lon="2.72816">
        <ele>245.75</ele>
        <time>2014-12-05T12:21:06Z</time>
      </trkpt>
      <trkpt lat="46.62577" lon="2.72833">
        <ele>245.27</ele>
        <time>2014-12-05T12:21:27Z</time>
      </trkpt>
      <trkpt lat="46.62567" lon="2.72838">
        <ele>245.75</ele>
        <time>2014-12-05T12:21:35Z</time>
      </trkpt>
      <trkpt lat="46.62552" lon="2.7285">
        <ele>248.16</ele>
        <time>2014-12-05T12:21:52Z</time>
      </trkpt>
      <trkpt lat="46.62538" lon="2.72859">
        <ele>250.56</ele>
        <time>2014-12-05T12:22:06Z</time>
      </trkpt>
      <trkpt lat="46.62526" lon="2.72873">
        <ele>253.44</ele>
        <time>2014-12-05T12:22:23Z</time>
      </trkpt>
      <trkpt lat="46.62514" lon="2.72884">
        <ele>254.41</ele>
        <time>2014-12-05T12:22:36Z</time>
      </trkpt>
      <trkpt lat="46.62505" lon="2.72898">
        <ele>256.33</ele>
        <time>2014-12-05T12:22:49Z</time>
      </trkpt>
      <trkpt lat="46.62495" lon="2.72912">
        <ele>257.29</ele>
        <time>2014-12-05T12:23:02Z</time>
      </trkpt>
      <trkpt lat="46.62478" lon="2.72925">
        <ele>258.25</ele>
        <time>2014-12-05T12:23:18Z</time>
      </trkpt>
      <trkpt lat="46.62468" lon="2.72927">
        <ele>258.25</ele>
        <time>2014-12-05T12:23:26Z</time>
      </trkpt>
      <trkpt lat="46.62456" lon="2.7293">
        <ele>258.25</ele>
        <time>2014-12-05T12:23:39Z</time>
      </trkpt>
      <trkpt lat="46.62444" lon="2.7294">
        <ele>258.25</ele>
        <time>2014-12-05T12:23:53Z</time>
      </trkpt>
      <trkpt lat="46.62438" lon="2.72958">
        <ele>259.21</ele>
        <time>2014-12-05T12:24:07Z</time>
      </trkpt>
      <trkpt lat="46.62433" lon="2.72975">
        <ele>259.21</ele>
        <time>2014-12-05T12:24:20Z</time>
      </trkpt>
      <trkpt lat="46.62427" lon="2.72995">
        <ele>261.14</ele>
        <time>2014-12-05T12:24:35Z</time>
      </trkpt>
      <trkpt lat="46.62429" lon="2.73014">
        <ele>262.1</ele>
        <time>2014-12-05T12:24:49Z</time>
      </trkpt>
      <trkpt lat="46.62432" lon="2.73046">
        <ele>263.54</ele>
        <time>2014-12-05T12:25:09Z</time>
      </trkpt>
      <trkpt lat="46.62434" lon="2.73059">
        <ele>264.02</ele>
        <time>2014-12-05T12:25:21Z</time>
      </trkpt>
      <trkpt lat="46.62434" lon="2.7308">
        <ele>264.5</ele>
        <time>2014-12-05T12:25:40Z</time>
      </trkpt>
      <trkpt lat="46.62436" lon="2.73104">
        <ele>265.46</ele>
        <time>2014-12-05T12:25:53Z</time>
      </trkpt>
      <trkpt lat="46.62437" lon="2.73133">
        <ele>265.94</ele>
        <time>2014-12-05T12:26:08Z</time>
      </trkpt>
      <trkpt lat="46.62441" lon="2.73155">
        <ele>266.42</ele>
        <time>2014-12-05T12:26:22Z</time>
      </trkpt>
      <trkpt lat="46.62442" lon="2.73177">
        <ele>267.86</ele>
        <time>2014-12-05T12:26:36Z</time>
      </trkpt>
      <trkpt lat="46.62447" lon="2.73196">
        <ele>268.35</ele>
        <time>2014-12-05T12:26:49Z</time>
      </trkpt>
      <trkpt lat="46.6245" lon="2.73228">
        <ele>269.31</ele>
        <time>2014-12-05T12:27:03Z</time>
      </trkpt>
      <trkpt lat="46.62451" lon="2.7325">
        <ele>269.79</ele>
        <time>2014-12-05T12:27:17Z</time>
      </trkpt>
      <trkpt lat="46.62451" lon="2.73278">
        <ele>270.27</ele>
        <time>2014-12-05T12:27:30Z</time>
      </trkpt>
      <trkpt lat="46.62452" lon="2.73305">
        <ele>270.75</ele>
        <time>2014-12-05T12:27:44Z</time>
      </trkpt>
      <trkpt lat="46.62454" lon="2.73331">
        <ele>271.23</ele>
        <time>2014-12-05T12:27:59Z</time>
      </trkpt>
      <trkpt lat="46.62457" lon="2.73363">
        <ele>271.71</ele>
        <time>2014-12-05T12:28:16Z</time>
      </trkpt>
      <trkpt lat="46.62458" lon="2.73386">
        <ele>271.71</ele>
        <time>2014-12-05T12:28:29Z</time>
      </trkpt>
      <trkpt lat="46.62461" lon="2.73423">
        <ele>272.19</ele>
        <time>2014-12-05T12:28:48Z</time>
      </trkpt>
      <trkpt lat="46.62464" lon="2.73453">
        <ele>272.19</ele>
        <time>2014-12-05T12:29:04Z</time>
      </trkpt>
      <trkpt lat="46.62465" lon="2.73476">
        <ele>272.19</ele>
        <time>2014-12-05T12:29:18Z</time>
      </trkpt>
      <trkpt lat="46.62456" lon="2.73484">
        <ele>272.19</ele>
        <time>2014-12-05T12:29:34Z</time>
      </trkpt>
      <trkpt lat="46.62436" lon="2.73488">
        <ele>272.19</ele>
        <time>2014-12-05T12:29:51Z</time>
      </trkpt>
      <trkpt lat="46.62416" lon="2.73488">
        <ele>272.19</ele>
        <time>2014-12-05T12:30:07Z</time>
      </trkpt>
      <trkpt lat="46.62401" lon="2.73492">
        <ele>270.75</ele>
        <time>2014-12-05T12:30:21Z</time>
      </trkpt>
      <trkpt lat="46.62379" lon="2.73495">
        <ele>270.27</ele>
        <time>2014-12-05T12:30:37Z</time>
      </trkpt>
      <trkpt lat="46.62367" lon="2.73496">
        <ele>270.27</ele>
        <time>2014-12-05T12:30:46Z</time>
      </trkpt>
      <trkpt lat="46.62343" lon="2.73499">
        <ele>269.31</ele>
        <time>2014-12-05T12:31:03Z</time>
      </trkpt>
      <trkpt lat="46.62323" lon="2.735">
        <ele>269.31</ele>
        <time>2014-12-05T12:31:16Z</time>
      </trkpt>
      <trkpt lat="46.62305" lon="2.73502">
        <ele>268.83</ele>
        <time>2014-12-05T12:31:30Z</time>
      </trkpt>
      <trkpt lat="46.6229" lon="2.73504">
        <ele>268.83</ele>
        <time>2014-12-05T12:31:42Z</time>
      </trkpt>
      <trkpt lat="46.62276" lon="2.73508">
        <ele>270.75</ele>
        <time>2014-12-05T12:31:55Z</time>
      </trkpt>
      <trkpt lat="46.62253" lon="2.7351">
        <ele>271.23</ele>
        <time>2014-12-05T12:32:12Z</time>
      </trkpt>
      <trkpt lat="46.62235" lon="2.7351">
        <ele>271.23</ele>
        <time>2014-12-05T12:32:26Z</time>
      </trkpt>
      <trkpt lat="46.62216" lon="2.73513">
        <ele>269.79</ele>
        <time>2014-12-05T12:32:40Z</time>
      </trkpt>
      <trkpt lat="46.62196" lon="2.73516">
        <ele>269.79</ele>
        <time>2014-12-05T12:32:55Z</time>
      </trkpt>
      <trkpt lat="46.62178" lon="2.73516">
        <ele>269.31</ele>
        <time>2014-12-05T12:33:10Z</time>
      </trkpt>
      <trkpt lat="46.62162" lon="2.73518">
        <ele>269.31</ele>
        <time>2014-12-05T12:33:24Z</time>
      </trkpt>
      <trkpt lat="46.62149" lon="2.73519">
        <ele>269.31</ele>
        <time>2014-12-05T12:33:36Z</time>
      </trkpt>
      <trkpt lat="46.62127" lon="2.73523">
        <ele>271.23</ele>
        <time>2014-12-05T12:33:55Z</time>
      </trkpt>
      <trkpt lat="46.62112" lon="2.73527">
        <ele>271.71</ele>
        <time>2014-12-05T12:34:09Z</time>
      </trkpt>
      <trkpt lat="46.62091" lon="2.73529">
        <ele>272.19</ele>
        <time>2014-12-05T12:34:25Z</time>
      </trkpt>
      <trkpt lat="46.62071" lon="2.73534">
        <ele>272.67</ele>
        <time>2014-12-05T12:34:40Z</time>
      </trkpt>
      <trkpt lat="46.62053" lon="2.73535">
        <ele>273.15</ele>
        <time>2014-12-05T12:34:52Z</time>
      </trkpt>
      <trkpt lat="46.62036" lon="2.73536">
        <ele>273.15</ele>
        <time>2014-12-05T12:35:05Z</time>
      </trkpt>
      <trkpt lat="46.62015" lon="2.73538">
        <ele>273.15</ele>
        <time>2014-12-05T12:35:19Z</time>
      </trkpt>
      <trkpt lat="46.61998" lon="2.73541">
        <ele>273.15</ele>
        <time>2014-12-05T12:35:33Z</time>
      </trkpt>
      <trkpt lat="46.61982" lon="2.73544">
        <ele>273.15</ele>
        <time>2014-12-05T12:35:48Z</time>
      </trkpt>
      <trkpt lat="46.61967" lon="2.73534">
        <ele>273.15</ele>
        <time>2014-12-05T12:36:05Z</time>
      </trkpt>
      <trkpt lat="46.61956" lon="2.73522">
        <ele>272.19</ele>
        <time>2014-12-05T12:36:19Z</time>
      </trkpt>
      <trkpt lat="46.61941" lon="2.73502">
        <ele>271.71</ele>
        <time>2014-12-05T12:36:35Z</time>
      </trkpt>
      <trkpt lat="46.61934" lon="2.73484">
        <ele>272.19</ele>
        <time>2014-12-05T12:36:48Z</time>
      </trkpt>
      <trkpt lat="46.61932" lon="2.73477">
        <ele>271.23</ele>
        <time>2014-12-05T12:37:36Z</time>
      </trkpt>
      <trkpt lat="46.61921" lon="2.73464">
        <ele>271.23</ele>
        <time>2014-12-05T12:37:51Z</time>
      </trkpt>
      <trkpt lat="46.61909" lon="2.73445">
        <ele>270.27</ele>
        <time>2014-12-05T12:38:05Z</time>
      </trkpt>
      <trkpt lat="46.61895" lon="2.73425">
        <ele>269.31</ele>
        <time>2014-12-05T12:38:19Z</time>
      </trkpt>
      <trkpt lat="46.61883" lon="2.73402">
        <ele>267.38</ele>
        <time>2014-12-05T12:38:34Z</time>
      </trkpt>
      <trkpt lat="46.61873" lon="2.73378">
        <ele>266.42</ele>
        <time>2014-12-05T12:38:48Z</time>
      </trkpt>
      <trkpt lat="46.61862" lon="2.73361">
        <ele>265.46</ele>
        <time>2014-12-05T12:39:01Z</time>
      </trkpt>
      <trkpt lat="46.61848" lon="2.73342">
        <ele>263.06</ele>
        <time>2014-12-05T12:39:17Z</time>
      </trkpt>
      <trkpt lat="46.61842" lon="2.73329">
        <ele>265.94</ele>
        <time>2014-12-05T12:43:51Z</time>
      </trkpt>
      <trkpt lat="46.61835" lon="2.73312">
        <ele>266.42</ele>
        <time>2014-12-05T12:44:04Z</time>
      </trkpt>
      <trkpt lat="46.61798" lon="2.73209">
        <ele>264.98</ele>
        <time>2014-12-05T12:50:00Z</time>
      </trkpt>
      <trkpt lat="46.61798" lon="2.73185">
        <ele>263.06</ele>
        <time>2014-12-05T12:50:16Z</time>
      </trkpt>
      <trkpt lat="46.6179" lon="2.73153">
        <ele>262.58</ele>
        <time>2014-12-05T12:50:45Z</time>
      </trkpt>
      <trkpt lat="46.61797" lon="2.73132">
        <ele>261.62</ele>
        <time>2014-12-05T12:51:00Z</time>
      </trkpt>
      <trkpt lat="46.61814" lon="2.73119">
        <ele>260.65</ele>
        <time>2014-12-05T12:51:15Z</time>
      </trkpt>
      <trkpt lat="46.61831" lon="2.73105">
        <ele>258.73</ele>
        <time>2014-12-05T12:51:31Z</time>
      </trkpt>
      <trkpt lat="46.61825" lon="2.73093">
        <ele>258.73</ele>
        <time>2014-12-05T12:51:52Z</time>
      </trkpt>
      <trkpt lat="46.61814" lon="2.7307">
        <ele>259.69</ele>
        <time>2014-12-05T12:52:34Z</time>
      </trkpt>
      <trkpt lat="46.61803" lon="2.73046">
        <ele>259.69</ele>
        <time>2014-12-05T12:52:51Z</time>
      </trkpt>
      <trkpt lat="46.61795" lon="2.73031">
        <ele>260.65</ele>
        <time>2014-12-05T12:53:03Z</time>
      </trkpt>
      <trkpt lat="46.61783" lon="2.73005">
        <ele>261.62</ele>
        <time>2014-12-05T12:53:23Z</time>
      </trkpt>
      <trkpt lat="46.61771" lon="2.72983">
        <ele>262.58</ele>
        <time>2014-12-05T12:53:38Z</time>
      </trkpt>
      <trkpt lat="46.6176" lon="2.72957">
        <ele>263.06</ele>
        <time>2014-12-05T12:53:54Z</time>
      </trkpt>
      <trkpt lat="46.61749" lon="2.72931">
        <ele>264.02</ele>
        <time>2014-12-05T12:54:10Z</time>
      </trkpt>
      <trkpt lat="46.61735" lon="2.72901">
        <ele>264.5</ele>
        <time>2014-12-05T12:54:26Z</time>
      </trkpt>
      <trkpt lat="46.61725" lon="2.7288">
        <ele>264.98</ele>
        <time>2014-12-05T12:54:44Z</time>
      </trkpt>
      <trkpt lat="46.61719" lon="2.72869">
        <ele>264.98</ele>
        <time>2014-12-05T12:55:02Z</time>
      </trkpt>
      <trkpt lat="46.61709" lon="2.72845">
        <ele>264.98</ele>
        <time>2014-12-05T12:56:27Z</time>
      </trkpt>
      <trkpt lat="46.61705" lon="2.72833">
        <ele>264.98</ele>
        <time>2014-12-05T12:56:36Z</time>
      </trkpt>
      <trkpt lat="46.61695" lon="2.7281">
        <ele>265.46</ele>
        <time>2014-12-05T12:56:53Z</time>
      </trkpt>
      <trkpt lat="46.61684" lon="2.72786">
        <ele>266.9</ele>
        <time>2014-12-05T12:57:09Z</time>
      </trkpt>
      <trkpt lat="46.61673" lon="2.72771">
        <ele>267.86</ele>
        <time>2014-12-05T12:57:23Z</time>
      </trkpt>
      <trkpt lat="46.61662" lon="2.72747">
        <ele>268.35</ele>
        <time>2014-12-05T12:57:37Z</time>
      </trkpt>
      <trkpt lat="46.61648" lon="2.72717">
        <ele>270.27</ele>
        <time>2014-12-05T12:57:58Z</time>
      </trkpt>
      <trkpt lat="46.61637" lon="2.7269">
        <ele>271.71</ele>
        <time>2014-12-05T12:58:15Z</time>
      </trkpt>
      <trkpt lat="46.61623" lon="2.72668">
        <ele>272.67</ele>
        <time>2014-12-05T12:58:32Z</time>
      </trkpt>
      <trkpt lat="46.61614" lon="2.72649">
        <ele>272.19</ele>
        <time>2014-12-05T12:58:43Z</time>
      </trkpt>
      <trkpt lat="46.61606" lon="2.72627">
        <ele>272.67</ele>
        <time>2014-12-05T12:58:58Z</time>
      </trkpt>
      <trkpt lat="46.61597" lon="2.7261">
        <ele>273.63</ele>
        <time>2014-12-05T12:59:12Z</time>
      </trkpt>
      <trkpt lat="46.61585" lon="2.72583">
        <ele>274.11</ele>
        <time>2014-12-05T12:59:28Z</time>
      </trkpt>
      <trkpt lat="46.61574" lon="2.72563">
        <ele>274.11</ele>
        <time>2014-12-05T12:59:44Z</time>
      </trkpt>
      <trkpt lat="46.61558" lon="2.72531">
        <ele>274.11</ele>
        <time>2014-12-05T13:00:02Z</time>
      </trkpt>
      <trkpt lat="46.61549" lon="2.7251">
        <ele>271.71</ele>
        <time>2014-12-05T13:00:17Z</time>
      </trkpt>
      <trkpt lat="46.61537" lon="2.72485">
        <ele>270.27</ele>
        <time>2014-12-05T13:00:33Z</time>
      </trkpt>
      <trkpt lat="46.61524" lon="2.72458">
        <ele>270.27</ele>
        <time>2014-12-05T13:00:50Z</time>
      </trkpt>
      <trkpt lat="46.61512" lon="2.72434">
        <ele>269.79</ele>
        <time>2014-12-05T13:01:08Z</time>
      </trkpt>
      <trkpt lat="46.61501" lon="2.72415">
        <ele>267.86</ele>
        <time>2014-12-05T13:01:26Z</time>
      </trkpt>
      <trkpt lat="46.61482" lon="2.72428">
        <ele>267.38</ele>
        <time>2014-12-05T13:01:48Z</time>
      </trkpt>
      <trkpt lat="46.61467" lon="2.72441">
        <ele>267.38</ele>
        <time>2014-12-05T13:02:03Z</time>
      </trkpt>
      <trkpt lat="46.61447" lon="2.7246">
        <ele>267.38</ele>
        <time>2014-12-05T13:02:21Z</time>
      </trkpt>
      <trkpt lat="46.61431" lon="2.72477">
        <ele>267.38</ele>
        <time>2014-12-05T13:02:37Z</time>
      </trkpt>
      <trkpt lat="46.6141" lon="2.72499">
        <ele>266.9</ele>
        <time>2014-12-05T13:02:55Z</time>
      </trkpt>
      <trkpt lat="46.61399" lon="2.72507">
        <ele>266.9</ele>
        <time>2014-12-05T13:03:05Z</time>
      </trkpt>
      <trkpt lat="46.61375" lon="2.72539">
        <ele>265.46</ele>
        <time>2014-12-05T13:03:28Z</time>
      </trkpt>
      <trkpt lat="46.61367" lon="2.72547">
        <ele>264.5</ele>
        <time>2014-12-05T13:04:03Z</time>
      </trkpt>
      <trkpt lat="46.6137" lon="2.72565">
        <ele>265.46</ele>
        <time>2014-12-05T13:04:22Z</time>
      </trkpt>
      <trkpt lat="46.61374" lon="2.72584">
        <ele>266.9</ele>
        <time>2014-12-05T13:04:38Z</time>
      </trkpt>
      <trkpt lat="46.61354" lon="2.72598">
        <ele>266.9</ele>
        <time>2014-12-05T13:05:03Z</time>
      </trkpt>
      <trkpt lat="46.61346" lon="2.72604">
        <ele>265.46</ele>
        <time>2014-12-05T13:05:11Z</time>
      </trkpt>
      <trkpt lat="46.61334" lon="2.7261">
        <ele>262.58</ele>
        <time>2014-12-05T13:05:24Z</time>
      </trkpt>
      <trkpt lat="46.61325" lon="2.72615">
        <ele>259.21</ele>
        <time>2014-12-05T13:05:35Z</time>
      </trkpt>
      <trkpt lat="46.61317" lon="2.72622">
        <ele>255.85</ele>
        <time>2014-12-05T13:05:49Z</time>
      </trkpt>
      <trkpt lat="46.61314" lon="2.72638">
        <ele>255.37</ele>
        <time>2014-12-05T13:06:03Z</time>
      </trkpt>
      <trkpt lat="46.61304" lon="2.72648">
        <ele>254.89</ele>
        <time>2014-12-05T13:06:17Z</time>
      </trkpt>
      <trkpt lat="46.61295" lon="2.72638">
        <ele>254.89</ele>
        <time>2014-12-05T13:07:06Z</time>
      </trkpt>
      <trkpt lat="46.61276" lon="2.72637">
        <ele>258.73</ele>
        <time>2014-12-05T13:07:28Z</time>
      </trkpt>
      <trkpt lat="46.61265" lon="2.7264">
        <ele>262.1</ele>
        <time>2014-12-05T13:07:43Z</time>
      </trkpt>
      <trkpt lat="46.61246" lon="2.72652">
        <ele>264.02</ele>
        <time>2014-12-05T13:08:04Z</time>
      </trkpt>
      <trkpt lat="46.6123" lon="2.72658">
        <ele>265.46</ele>
        <time>2014-12-05T13:08:18Z</time>
      </trkpt>
      <trkpt lat="46.61221" lon="2.72662">
        <ele>265.94</ele>
        <time>2014-12-05T13:08:26Z</time>
      </trkpt>
      <trkpt lat="46.61204" lon="2.72673">
        <ele>266.9</ele>
        <time>2014-12-05T13:08:43Z</time>
      </trkpt>
      <trkpt lat="46.61188" lon="2.72685">
        <ele>266.9</ele>
        <time>2014-12-05T13:08:59Z</time>
      </trkpt>
      <trkpt lat="46.61168" lon="2.72694">
        <ele>266.9</ele>
        <time>2014-12-05T13:09:15Z</time>
      </trkpt>
      <trkpt lat="46.61151" lon="2.72702">
        <ele>266.42</ele>
        <time>2014-12-05T13:09:30Z</time>
      </trkpt>
      <trkpt lat="46.61128" lon="2.72711">
        <ele>266.42</ele>
        <time>2014-12-05T13:09:46Z</time>
      </trkpt>
      <trkpt lat="46.61102" lon="2.7272">
        <ele>266.42</ele>
        <time>2014-12-05T13:10:04Z</time>
      </trkpt>
      <trkpt lat="46.61082" lon="2.72729">
        <ele>266.42</ele>
        <time>2014-12-05T13:10:20Z</time>
      </trkpt>
      <trkpt lat="46.61057" lon="2.7274">
        <ele>269.31</ele>
        <time>2014-12-05T13:10:43Z</time>
      </trkpt>
      <trkpt lat="46.61037" lon="2.7275">
        <ele>270.27</ele>
        <time>2014-12-05T13:10:59Z</time>
      </trkpt>
      <trkpt lat="46.61017" lon="2.72764">
        <ele>271.71</ele>
        <time>2014-12-05T13:11:17Z</time>
      </trkpt>
      <trkpt lat="46.60997" lon="2.72774">
        <ele>272.67</ele>
        <time>2014-12-05T13:11:35Z</time>
      </trkpt>
      <trkpt lat="46.60976" lon="2.72784">
        <ele>272.67</ele>
        <time>2014-12-05T13:11:51Z</time>
      </trkpt>
      <trkpt lat="46.60963" lon="2.72786">
        <ele>271.23</ele>
        <time>2014-12-05T13:12:04Z</time>
      </trkpt>
      <trkpt lat="46.60956" lon="2.72769">
        <ele>271.23</ele>
        <time>2014-12-05T13:12:19Z</time>
      </trkpt>
      <trkpt lat="46.60945" lon="2.7275">
        <ele>270.75</ele>
        <time>2014-12-05T13:12:36Z</time>
      </trkpt>
      <trkpt lat="46.60939" lon="2.72734">
        <ele>270.27</ele>
        <time>2014-12-05T13:12:47Z</time>
      </trkpt>
      <trkpt lat="46.60929" lon="2.727">
        <ele>270.27</ele>
        <time>2014-12-05T13:13:03Z</time>
      </trkpt>
      <trkpt lat="46.60917" lon="2.72677">
        <ele>270.27</ele>
        <time>2014-12-05T13:13:18Z</time>
      </trkpt>
      <trkpt lat="46.60904" lon="2.72655">
        <ele>270.27</ele>
        <time>2014-12-05T13:13:34Z</time>
      </trkpt>
      <trkpt lat="46.6089" lon="2.72628">
        <ele>268.83</ele>
        <time>2014-12-05T13:13:52Z</time>
      </trkpt>
      <trkpt lat="46.60875" lon="2.726">
        <ele>266.42</ele>
        <time>2014-12-05T13:14:09Z</time>
      </trkpt>
      <trkpt lat="46.60866" lon="2.72586">
        <ele>264.98</ele>
        <time>2014-12-05T13:14:20Z</time>
      </trkpt>
      <trkpt lat="46.60854" lon="2.72567">
        <ele>263.54</ele>
        <time>2014-12-05T13:14:35Z</time>
      </trkpt>
      <trkpt lat="46.60839" lon="2.7254">
        <ele>262.58</ele>
        <time>2014-12-05T13:14:51Z</time>
      </trkpt>
      <trkpt lat="46.60832" lon="2.72514">
        <ele>261.62</ele>
        <time>2014-12-05T13:15:06Z</time>
      </trkpt>
      <trkpt lat="46.60842" lon="2.72492">
        <ele>259.21</ele>
        <time>2014-12-05T13:15:22Z</time>
      </trkpt>
      <trkpt lat="46.60856" lon="2.72476">
        <ele>258.73</ele>
        <time>2014-12-05T13:15:40Z</time>
      </trkpt>
      <trkpt lat="46.60871" lon="2.72467">
        <ele>258.73</ele>
        <time>2014-12-05T13:15:55Z</time>
      </trkpt>
      <trkpt lat="46.60895" lon="2.72461">
        <ele>261.14</ele>
        <time>2014-12-05T13:16:11Z</time>
      </trkpt>
      <trkpt lat="46.60908" lon="2.72449">
        <ele>263.06</ele>
        <time>2014-12-05T13:16:24Z</time>
      </trkpt>
      <trkpt lat="46.6092" lon="2.72428">
        <ele>264.98</ele>
        <time>2014-12-05T13:16:41Z</time>
      </trkpt>
      <trkpt lat="46.60919" lon="2.72394">
        <ele>266.42</ele>
        <time>2014-12-05T13:17:02Z</time>
      </trkpt>
      <trkpt lat="46.6091" lon="2.7237">
        <ele>268.35</ele>
        <time>2014-12-05T13:17:17Z</time>
      </trkpt>
      <trkpt lat="46.60894" lon="2.72341">
        <ele>269.79</ele>
        <time>2014-12-05T13:17:46Z</time>
      </trkpt>
      <trkpt lat="46.60882" lon="2.72319">
        <ele>271.23</ele>
        <time>2014-12-05T13:18:02Z</time>
      </trkpt>
      <trkpt lat="46.60869" lon="2.72296">
        <ele>272.67</ele>
        <time>2014-12-05T13:18:20Z</time>
      </trkpt>
      <trkpt lat="46.60856" lon="2.72275">
        <ele>273.15</ele>
        <time>2014-12-05T13:18:36Z</time>
      </trkpt>
      <trkpt lat="46.60838" lon="2.72251">
        <ele>273.63</ele>
        <time>2014-12-05T13:18:56Z</time>
      </trkpt>
      <trkpt lat="46.60827" lon="2.72227">
        <ele>273.63</ele>
        <time>2014-12-05T13:19:12Z</time>
      </trkpt>
      <trkpt lat="46.60814" lon="2.72193">
        <ele>273.63</ele>
        <time>2014-12-05T13:19:30Z</time>
      </trkpt>
      <trkpt lat="46.60808" lon="2.72163">
        <ele>273.63</ele>
        <time>2014-12-05T13:19:45Z</time>
      </trkpt>
      <trkpt lat="46.6082" lon="2.72123">
        <ele>269.79</ele>
        <time>2014-12-05T13:20:09Z</time>
      </trkpt>
      <trkpt lat="46.60835" lon="2.72098">
        <ele>267.38</ele>
        <time>2014-12-05T13:20:26Z</time>
      </trkpt>
      <trkpt lat="46.60848" lon="2.72089">
        <ele>264.98</ele>
        <time>2014-12-05T13:20:41Z</time>
      </trkpt>
      <trkpt lat="46.60864" lon="2.72085">
        <ele>262.58</ele>
        <time>2014-12-05T13:20:58Z</time>
      </trkpt>
      <trkpt lat="46.6088" lon="2.72077">
        <ele>259.21</ele>
        <time>2014-12-05T13:21:13Z</time>
      </trkpt>
      <trkpt lat="46.60897" lon="2.72067">
        <ele>256.81</ele>
        <time>2014-12-05T13:21:28Z</time>
      </trkpt>
      <trkpt lat="46.60918" lon="2.72047">
        <ele>256.33</ele>
        <time>2014-12-05T13:21:45Z</time>
      </trkpt>
      <trkpt lat="46.60938" lon="2.72036">
        <ele>255.85</ele>
        <time>2014-12-05T13:21:59Z</time>
      </trkpt>
      <trkpt lat="46.60957" lon="2.72026">
        <ele>257.29</ele>
        <time>2014-12-05T13:22:14Z</time>
      </trkpt>
      <trkpt lat="46.60979" lon="2.72022">
        <ele>258.25</ele>
        <time>2014-12-05T13:22:33Z</time>
      </trkpt>
      <trkpt lat="46.61" lon="2.72017">
        <ele>258.25</ele>
        <time>2014-12-05T13:22:49Z</time>
      </trkpt>
      <trkpt lat="46.6102" lon="2.72002">
        <ele>258.73</ele>
        <time>2014-12-05T13:23:04Z</time>
      </trkpt>
      <trkpt lat="46.61029" lon="2.71984">
        <ele>259.21</ele>
        <time>2014-12-05T13:23:14Z</time>
      </trkpt>
      <trkpt lat="46.61033" lon="2.71958">
        <ele>258.73</ele>
        <time>2014-12-05T13:23:30Z</time>
      </trkpt>
      <trkpt lat="46.61033" lon="2.71922">
        <ele>257.29</ele>
        <time>2014-12-05T13:23:49Z</time>
      </trkpt>
      <trkpt lat="46.61035" lon="2.71892">
        <ele>254.89</ele>
        <time>2014-12-05T13:24:06Z</time>
      </trkpt>
      <trkpt lat="46.6104" lon="2.71863">
        <ele>254.41</ele>
        <time>2014-12-05T13:24:22Z</time>
      </trkpt>
      <trkpt lat="46.6105" lon="2.71844">
        <ele>253.93</ele>
        <time>2014-12-05T13:24:36Z</time>
      </trkpt>
      <trkpt lat="46.6107" lon="2.71846">
        <ele>256.33</ele>
        <time>2014-12-05T13:24:54Z</time>
      </trkpt>
      <trkpt lat="46.61085" lon="2.71853">
        <ele>257.77</ele>
        <time>2014-12-05T13:25:09Z</time>
      </trkpt>
      <trkpt lat="46.61108" lon="2.71857">
        <ele>259.69</ele>
        <time>2014-12-05T13:25:25Z</time>
      </trkpt>
      <trkpt lat="46.61124" lon="2.7186">
        <ele>260.65</ele>
        <time>2014-12-05T13:25:39Z</time>
      </trkpt>
      <trkpt lat="46.61152" lon="2.71866">
        <ele>262.1</ele>
        <time>2014-12-05T13:26:02Z</time>
      </trkpt>
      <trkpt lat="46.6117" lon="2.71872">
        <ele>263.54</ele>
        <time>2014-12-05T13:26:18Z</time>
      </trkpt>
      <trkpt lat="46.61191" lon="2.71875">
        <ele>264.5</ele>
        <time>2014-12-05T13:26:34Z</time>
      </trkpt>
      <trkpt lat="46.6121" lon="2.71876">
        <ele>265.46</ele>
        <time>2014-12-05T13:26:47Z</time>
      </trkpt>
      <trkpt lat="46.61232" lon="2.7187">
        <ele>266.42</ele>
        <time>2014-12-05T13:27:04Z</time>
      </trkpt>
      <trkpt lat="46.61235" lon="2.7189">
        <ele>266.42</ele>
        <time>2014-12-05T13:27:17Z</time>
      </trkpt>
      <trkpt lat="46.6124" lon="2.71927">
        <ele>264.98</ele>
        <time>2014-12-05T13:27:38Z</time>
      </trkpt>
      <trkpt lat="46.61243" lon="2.71956">
        <ele>264.5</ele>
        <time>2014-12-05T13:27:54Z</time>
      </trkpt>
      <trkpt lat="46.61249" lon="2.71989">
        <ele>263.06</ele>
        <time>2014-12-05T13:28:10Z</time>
      </trkpt>
      <trkpt lat="46.61253" lon="2.72017">
        <ele>262.1</ele>
        <time>2014-12-05T13:28:24Z</time>
      </trkpt>
      <trkpt lat="46.61254" lon="2.72035">
        <ele>261.62</ele>
        <time>2014-12-05T13:28:36Z</time>
      </trkpt>
      <trkpt lat="46.61258" lon="2.72052">
        <ele>260.65</ele>
        <time>2014-12-05T13:28:51Z</time>
      </trkpt>
      <trkpt lat="46.61265" lon="2.72063">
        <ele>260.17</ele>
        <time>2014-12-05T13:29:37Z</time>
      </trkpt>
      <trkpt lat="46.61271" lon="2.72086">
        <ele>259.21</ele>
        <time>2014-12-05T13:29:52Z</time>
      </trkpt>
      <trkpt lat="46.61278" lon="2.72116">
        <ele>257.29</ele>
        <time>2014-12-05T13:30:10Z</time>
      </trkpt>
      <trkpt lat="46.61286" lon="2.72151">
        <ele>256.33</ele>
        <time>2014-12-05T13:30:29Z</time>
      </trkpt>
      <trkpt lat="46.61293" lon="2.72182">
        <ele>254.89</ele>
        <time>2014-12-05T13:30:46Z</time>
      </trkpt>
      <trkpt lat="46.61304" lon="2.72216">
        <ele>253.93</ele>
        <time>2014-12-05T13:31:05Z</time>
      </trkpt>
      <trkpt lat="46.61317" lon="2.72244">
        <ele>253.44</ele>
        <time>2014-12-05T13:31:24Z</time>
      </trkpt>
      <trkpt lat="46.61324" lon="2.72258">
        <ele>252.96</ele>
        <time>2014-12-05T13:31:34Z</time>
      </trkpt>
      <trkpt lat="46.61337" lon="2.72268">
        <ele>252</ele>
        <time>2014-12-05T13:31:47Z</time>
      </trkpt>
      <trkpt lat="46.61356" lon="2.72269">
        <ele>251.52</ele>
        <time>2014-12-05T13:32:03Z</time>
      </trkpt>
      <trkpt lat="46.61369" lon="2.72271">
        <ele>252.96</ele>
        <time>2014-12-05T13:32:13Z</time>
      </trkpt>
      <trkpt lat="46.61383" lon="2.7228">
        <ele>253.93</ele>
        <time>2014-12-05T13:32:29Z</time>
      </trkpt>
      <trkpt lat="46.61394" lon="2.72291">
        <ele>253.44</ele>
        <time>2014-12-05T13:32:43Z</time>
      </trkpt>
      <trkpt lat="46.61404" lon="2.72305">
        <ele>252</ele>
        <time>2014-12-05T13:33:00Z</time>
      </trkpt>
      <trkpt lat="46.61416" lon="2.72299">
        <ele>252</ele>
        <time>2014-12-05T13:33:27Z</time>
      </trkpt>
      <trkpt lat="46.61425" lon="2.72294">
        <ele>251.52</ele>
        <time>2014-12-05T13:35:42Z</time>
      </trkpt>
      <trkpt lat="46.61433" lon="2.72278">
        <ele>252.96</ele>
        <time>2014-12-05T13:35:57Z</time>
      </trkpt>
      <trkpt lat="46.61446" lon="2.72279">
        <ele>252.48</ele>
        <time>2014-12-05T13:36:10Z</time>
      </trkpt>
      <trkpt lat="46.61459" lon="2.72267">
        <ele>252.48</ele>
        <time>2014-12-05T13:36:46Z</time>
      </trkpt>
      <trkpt lat="46.61468" lon="2.72257">
        <ele>252.96</ele>
        <time>2014-12-05T13:37:06Z</time>
      </trkpt>
      <trkpt lat="46.61479" lon="2.72244">
        <ele>252.96</ele>
        <time>2014-12-05T13:37:22Z</time>
      </trkpt>
      <trkpt lat="46.61486" lon="2.72235">
        <ele>251.52</ele>
        <time>2014-12-05T13:37:32Z</time>
      </trkpt>
      <trkpt lat="46.61502" lon="2.72223">
        <ele>251.52</ele>
        <time>2014-12-05T13:37:47Z</time>
      </trkpt>
      <trkpt lat="46.61522" lon="2.72219">
        <ele>251.52</ele>
        <time>2014-12-05T13:38:01Z</time>
      </trkpt>
      <trkpt lat="46.61545" lon="2.72221">
        <ele>251.04</ele>
        <time>2014-12-05T13:38:24Z</time>
      </trkpt>
      <trkpt lat="46.6156" lon="2.72219">
        <ele>254.41</ele>
        <time>2014-12-05T13:38:40Z</time>
      </trkpt>
      <trkpt lat="46.61577" lon="2.72211">
        <ele>256.33</ele>
        <time>2014-12-05T13:38:56Z</time>
      </trkpt>
      <trkpt lat="46.61591" lon="2.722">
        <ele>256.81</ele>
        <time>2014-12-05T13:39:11Z</time>
      </trkpt>
      <trkpt lat="46.6161" lon="2.72185">
        <ele>257.29</ele>
        <time>2014-12-05T13:39:31Z</time>
      </trkpt>
      <trkpt lat="46.61628" lon="2.72197">
        <ele>255.37</ele>
        <time>2014-12-05T13:39:46Z</time>
      </trkpt>
      <trkpt lat="46.61643" lon="2.72211">
        <ele>253.93</ele>
        <time>2014-12-05T13:40:01Z</time>
      </trkpt>
      <trkpt lat="46.6166" lon="2.72218">
        <ele>252</ele>
        <time>2014-12-05T13:40:41Z</time>
      </trkpt>
      <trkpt lat="46.61657" lon="2.72201">
        <ele>252</ele>
        <time>2014-12-05T13:41:02Z</time>
      </trkpt>
      <trkpt lat="46.61654" lon="2.72177">
        <ele>252</ele>
        <time>2014-12-05T13:41:16Z</time>
      </trkpt>
      <trkpt lat="46.61651" lon="2.72152">
        <ele>252</ele>
        <time>2014-12-05T13:41:32Z</time>
      </trkpt>
      <trkpt lat="46.61648" lon="2.72127">
        <ele>252</ele>
        <time>2014-12-05T13:41:47Z</time>
      </trkpt>
      <trkpt lat="46.61646" lon="2.72105">
        <ele>251.52</ele>
        <time>2014-12-05T13:42:01Z</time>
      </trkpt>
      <trkpt lat="46.61643" lon="2.72077">
        <ele>251.04</ele>
        <time>2014-12-05T13:42:16Z</time>
      </trkpt>
      <trkpt lat="46.61647" lon="2.72056">
        <ele>249.6</ele>
        <time>2014-12-05T13:42:31Z</time>
      </trkpt>
      <trkpt lat="46.61661" lon="2.72051">
        <ele>249.6</ele>
        <time>2014-12-05T13:42:45Z</time>
      </trkpt>
      <trkpt lat="46.61678" lon="2.72056">
        <ele>249.6</ele>
        <time>2014-12-05T13:43:02Z</time>
      </trkpt>
      <trkpt lat="46.61688" lon="2.72086">
        <ele>249.6</ele>
        <time>2014-12-05T13:43:21Z</time>
      </trkpt>
      <trkpt lat="46.61691" lon="2.72109">
        <ele>249.12</ele>
        <time>2014-12-05T13:43:36Z</time>
      </trkpt>
      <trkpt lat="46.61701" lon="2.72133">
        <ele>249.12</ele>
        <time>2014-12-05T13:43:52Z</time>
      </trkpt>
      <trkpt lat="46.61713" lon="2.72152">
        <ele>249.12</ele>
        <time>2014-12-05T13:44:08Z</time>
      </trkpt>
      <trkpt lat="46.61722" lon="2.72167">
        <ele>250.08</ele>
        <time>2014-12-05T13:44:20Z</time>
      </trkpt>
      <trkpt lat="46.61733" lon="2.72191">
        <ele>250.56</ele>
        <time>2014-12-05T13:44:34Z</time>
      </trkpt>
      <trkpt lat="46.61745" lon="2.72213">
        <ele>251.52</ele>
        <time>2014-12-05T13:44:48Z</time>
      </trkpt>
      <trkpt lat="46.61745" lon="2.7223">
        <ele>251.52</ele>
        <time>2014-12-05T13:44:57Z</time>
      </trkpt>
      <trkpt lat="46.6175" lon="2.72249">
        <ele>251.52</ele>
        <time>2014-12-05T13:45:09Z</time>
      </trkpt>
      <trkpt lat="46.6178" lon="2.72255">
        <ele>251.52</ele>
        <time>2014-12-05T13:45:36Z</time>
      </trkpt>
      <trkpt lat="46.61799" lon="2.72254">
        <ele>251.52</ele>
        <time>2014-12-05T13:45:51Z</time>
      </trkpt>
      <trkpt lat="46.61819" lon="2.72252">
        <ele>252</ele>
        <time>2014-12-05T13:46:08Z</time>
      </trkpt>
      <trkpt lat="46.61839" lon="2.72247">
        <ele>252</ele>
        <time>2014-12-05T13:46:24Z</time>
      </trkpt>
      <trkpt lat="46.61854" lon="2.72241">
        <ele>252.48</ele>
        <time>2014-12-05T13:46:37Z</time>
      </trkpt>
      <trkpt lat="46.6187" lon="2.72228">
        <ele>252.48</ele>
        <time>2014-12-05T13:46:52Z</time>
      </trkpt>
      <trkpt lat="46.61877" lon="2.72211">
        <ele>252.96</ele>
        <time>2014-12-05T13:47:04Z</time>
      </trkpt>
      <trkpt lat="46.61886" lon="2.7218">
        <ele>252.96</ele>
        <time>2014-12-05T13:47:22Z</time>
      </trkpt>
      <trkpt lat="46.6189" lon="2.72158">
        <ele>252.96</ele>
        <time>2014-12-05T13:47:34Z</time>
      </trkpt>
      <trkpt lat="46.61896" lon="2.72133">
        <ele>251.52</ele>
        <time>2014-12-05T13:47:51Z</time>
      </trkpt>
      <trkpt lat="46.61906" lon="2.72107">
        <ele>251.52</ele>
        <time>2014-12-05T13:48:04Z</time>
      </trkpt>
      <trkpt lat="46.61913" lon="2.72072">
        <ele>253.93</ele>
        <time>2014-12-05T13:48:23Z</time>
      </trkpt>
      <trkpt lat="46.61916" lon="2.72039">
        <ele>255.85</ele>
        <time>2014-12-05T13:48:41Z</time>
      </trkpt>
      <trkpt lat="46.61921" lon="2.72014">
        <ele>257.29</ele>
        <time>2014-12-05T13:48:56Z</time>
      </trkpt>
      <trkpt lat="46.61921" lon="2.71999">
        <ele>258.73</ele>
        <time>2014-12-05T13:49:06Z</time>
      </trkpt>
      <trkpt lat="46.6194" lon="2.7199">
        <ele>259.21</ele>
        <time>2014-12-05T13:49:26Z</time>
      </trkpt>
      <trkpt lat="46.61961" lon="2.71989">
        <ele>259.69</ele>
        <time>2014-12-05T13:49:42Z</time>
      </trkpt>
      <trkpt lat="46.6198" lon="2.71986">
        <ele>259.69</ele>
        <time>2014-12-05T13:49:56Z</time>
      </trkpt>
      <trkpt lat="46.62" lon="2.71981">
        <ele>260.65</ele>
        <time>2014-12-05T13:50:13Z</time>
      </trkpt>
      <trkpt lat="46.62017" lon="2.71978">
        <ele>261.14</ele>
        <time>2014-12-05T13:51:18Z</time>
      </trkpt>
      <trkpt lat="46.62039" lon="2.71977">
        <ele>261.14</ele>
        <time>2014-12-05T13:51:33Z</time>
      </trkpt>
      <trkpt lat="46.62044" lon="2.71972">
        <ele>261.14</ele>
        <time>2014-12-05T13:53:00Z</time>
      </trkpt>
      <trkpt lat="46.62049" lon="2.71944">
        <ele>261.14</ele>
        <time>2014-12-05T13:53:26Z</time>
      </trkpt>
      <trkpt lat="46.6206" lon="2.71936">
        <ele>261.14</ele>
        <time>2014-12-05T13:53:40Z</time>
      </trkpt>
      <trkpt lat="46.62079" lon="2.71919">
        <ele>261.14</ele>
        <time>2014-12-05T13:53:54Z</time>
      </trkpt>
      <trkpt lat="46.62086" lon="2.7191">
        <ele>260.17</ele>
        <time>2014-12-05T13:54:03Z</time>
      </trkpt>
      <trkpt lat="46.62104" lon="2.71892">
        <ele>258.73</ele>
        <time>2014-12-05T13:54:16Z</time>
      </trkpt>
      <trkpt lat="46.62119" lon="2.7187">
        <ele>258.25</ele>
        <time>2014-12-05T13:54:56Z</time>
      </trkpt>
      <trkpt lat="46.62137" lon="2.71856">
        <ele>257.29</ele>
        <time>2014-12-05T13:55:13Z</time>
      </trkpt>
      <trkpt lat="46.6215" lon="2.71842">
        <ele>255.85</ele>
        <time>2014-12-05T13:55:27Z</time>
      </trkpt>
      <trkpt lat="46.62165" lon="2.71825">
        <ele>254.89</ele>
        <time>2014-12-05T13:55:44Z</time>
      </trkpt>
      <trkpt lat="46.62176" lon="2.71813">
        <ele>253.44</ele>
        <time>2014-12-05T13:55:58Z</time>
      </trkpt>
      <trkpt lat="46.62191" lon="2.71798">
        <ele>251.52</ele>
        <time>2014-12-05T13:56:12Z</time>
      </trkpt>
      <trkpt lat="46.6221" lon="2.71778">
        <ele>250.56</ele>
        <time>2014-12-05T13:56:29Z</time>
      </trkpt>
      <trkpt lat="46.62229" lon="2.71758">
        <ele>249.12</ele>
        <time>2014-12-05T13:56:45Z</time>
      </trkpt>
      <trkpt lat="46.62242" lon="2.71744">
        <ele>247.68</ele>
        <time>2014-12-05T13:56:58Z</time>
      </trkpt>
      <trkpt lat="46.62257" lon="2.71728">
        <ele>247.2</ele>
        <time>2014-12-05T13:57:13Z</time>
      </trkpt>
      <trkpt lat="46.62272" lon="2.71713">
        <ele>246.23</ele>
        <time>2014-12-05T13:57:26Z</time>
      </trkpt>
      <trkpt lat="46.6229" lon="2.71694">
        <ele>246.23</ele>
        <time>2014-12-05T13:57:39Z</time>
      </trkpt>
      <trkpt lat="46.62302" lon="2.71682">
        <ele>246.23</ele>
        <time>2014-12-05T13:57:52Z</time>
      </trkpt>
      <trkpt lat="46.62313" lon="2.71669">
        <ele>246.23</ele>
        <time>2014-12-05T13:58:07Z</time>
      </trkpt>
      <trkpt lat="46.62338" lon="2.71647">
        <ele>246.23</ele>
        <time>2014-12-05T13:58:25Z</time>
      </trkpt>
      <trkpt lat="46.62353" lon="2.7163">
        <ele>246.23</ele>
        <time>2014-12-05T13:58:39Z</time>
      </trkpt>
      <trkpt lat="46.6237" lon="2.71612">
        <ele>246.23</ele>
        <time>2014-12-05T13:58:55Z</time>
      </trkpt>
      <trkpt lat="46.62382" lon="2.71598">
        <ele>246.23</ele>
        <time>2014-12-05T13:59:12Z</time>
      </trkpt>
      <trkpt lat="46.62408" lon="2.71572">
        <ele>245.75</ele>
        <time>2014-12-05T13:59:32Z</time>
      </trkpt>
      <trkpt lat="46.62427" lon="2.71556">
        <ele>244.79</ele>
        <time>2014-12-05T13:59:48Z</time>
      </trkpt>
      <trkpt lat="46.62442" lon="2.71538">
        <ele>244.79</ele>
        <time>2014-12-05T14:00:04Z</time>
      </trkpt>
      <trkpt lat="46.62458" lon="2.71523">
        <ele>243.83</ele>
        <time>2014-12-05T14:00:19Z</time>
      </trkpt>
      <trkpt lat="46.62477" lon="2.71504">
        <ele>243.35</ele>
        <time>2014-12-05T14:00:34Z</time>
      </trkpt>
      <trkpt lat="46.62496" lon="2.71483">
        <ele>242.87</ele>
        <time>2014-12-05T14:00:50Z</time>
      </trkpt>
      <trkpt lat="46.62509" lon="2.71479">
        <ele>242.39</ele>
        <time>2014-12-05T14:01:04Z</time>
      </trkpt>
      <trkpt lat="46.6253" lon="2.71506">
        <ele>241.91</ele>
        <time>2014-12-05T14:01:28Z</time>
      </trkpt>
      <trkpt lat="46.62547" lon="2.71531">
        <ele>240.95</ele>
        <time>2014-12-05T14:01:48Z</time>
      </trkpt>
      <trkpt lat="46.62561" lon="2.71553">
        <ele>240.47</ele>
        <time>2014-12-05T14:02:05Z</time>
      </trkpt>
      <trkpt lat="46.62574" lon="2.71572">
        <ele>239.51</ele>
        <time>2014-12-05T14:02:20Z</time>
      </trkpt>
      <trkpt lat="46.62587" lon="2.71594">
        <ele>239.02</ele>
        <time>2014-12-05T14:02:36Z</time>
      </trkpt>
      <trkpt lat="46.62604" lon="2.71625">
        <ele>239.02</ele>
        <time>2014-12-05T14:02:57Z</time>
      </trkpt>
      <trkpt lat="46.62611" lon="2.71637">
        <ele>238.54</ele>
        <time>2014-12-05T14:03:15Z</time>
      </trkpt>
      <trkpt lat="46.62618" lon="2.71638">
        <ele>238.54</ele>
        <time>2014-12-05T14:05:01Z</time>
      </trkpt>
      <trkpt lat="46.62625" lon="2.71649">
        <ele>238.54</ele>
        <time>2014-12-05T14:05:19Z</time>
      </trkpt>
      <trkpt lat="46.62637" lon="2.71667">
        <ele>238.54</ele>
        <time>2014-12-05T14:05:36Z</time>
      </trkpt>
      <trkpt lat="46.62649" lon="2.71686">
        <ele>238.54</ele>
        <time>2014-12-05T14:05:52Z</time>
      </trkpt>
      <trkpt lat="46.6266" lon="2.71703">
        <ele>238.54</ele>
        <time>2014-12-05T14:06:07Z</time>
      </trkpt>
      <trkpt lat="46.62672" lon="2.7172">
        <ele>239.99</ele>
        <time>2014-12-05T14:06:23Z</time>
      </trkpt>
      <trkpt lat="46.62688" lon="2.71745">
        <ele>240.95</ele>
        <time>2014-12-05T14:06:42Z</time>
      </trkpt>
      <trkpt lat="46.62699" lon="2.71763">
        <ele>240.95</ele>
        <time>2014-12-05T14:06:54Z</time>
      </trkpt>
      <trkpt lat="46.62714" lon="2.71787">
        <ele>242.39</ele>
        <time>2014-12-05T14:07:11Z</time>
      </trkpt>
      <trkpt lat="46.6273" lon="2.71806">
        <ele>242.39</ele>
        <time>2014-12-05T14:07:30Z</time>
      </trkpt>
      <trkpt lat="46.62742" lon="2.71829">
        <ele>242.39</ele>
        <time>2014-12-05T14:07:46Z</time>
      </trkpt>
      <trkpt lat="46.62755" lon="2.71852">
        <ele>240.95</ele>
        <time>2014-12-05T14:08:02Z</time>
      </trkpt>
      <trkpt lat="46.62765" lon="2.71866">
        <ele>240.47</ele>
        <time>2014-12-05T14:08:20Z</time>
      </trkpt>
      <trkpt lat="46.62777" lon="2.71887">
        <ele>240.47</ele>
        <time>2014-12-05T14:08:36Z</time>
      </trkpt>
      <trkpt lat="46.62786" lon="2.71904">
        <ele>240.47</ele>
        <time>2014-12-05T14:08:49Z</time>
      </trkpt>
      <trkpt lat="46.62796" lon="2.71922">
        <ele>239.99</ele>
        <time>2014-12-05T14:09:05Z</time>
      </trkpt>
      <trkpt lat="46.62807" lon="2.71943">
        <ele>239.99</ele>
        <time>2014-12-05T14:09:21Z</time>
      </trkpt>
      <trkpt lat="46.62824" lon="2.71962">
        <ele>239.51</ele>
        <time>2014-12-05T14:09:36Z</time>
      </trkpt>
      <trkpt lat="46.6284" lon="2.71985">
        <ele>241.43</ele>
        <time>2014-12-05T14:09:51Z</time>
      </trkpt>
      <trkpt lat="46.62859" lon="2.72013">
        <ele>242.87</ele>
        <time>2014-12-05T14:10:09Z</time>
      </trkpt>
      <trkpt lat="46.62878" lon="2.72036">
        <ele>244.31</ele>
        <time>2014-12-05T14:10:28Z</time>
      </trkpt>
      <trkpt lat="46.62906" lon="2.72023">
        <ele>244.31</ele>
        <time>2014-12-05T14:10:50Z</time>
      </trkpt>
      <trkpt lat="46.62927" lon="2.72004">
        <ele>242.87</ele>
        <time>2014-12-05T14:11:09Z</time>
      </trkpt>
      <trkpt lat="46.62947" lon="2.71984">
        <ele>241.43</ele>
        <time>2014-12-05T14:11:27Z</time>
      </trkpt>
      <trkpt lat="46.62965" lon="2.71966">
        <ele>240.95</ele>
        <time>2014-12-05T14:11:43Z</time>
      </trkpt>
      <trkpt lat="46.62982" lon="2.71948">
        <ele>239.99</ele>
        <time>2014-12-05T14:11:59Z</time>
      </trkpt>
      <trkpt lat="46.63" lon="2.71928">
        <ele>238.54</ele>
        <time>2014-12-05T14:12:21Z</time>
      </trkpt>
      <trkpt lat="46.63019" lon="2.71905">
        <ele>237.1</ele>
        <time>2014-12-05T14:12:41Z</time>
      </trkpt>
      <trkpt lat="46.6304" lon="2.71888">
        <ele>235.18</ele>
        <time>2014-12-05T14:13:00Z</time>
      </trkpt>
      <trkpt lat="46.63059" lon="2.71869">
        <ele>233.74</ele>
        <time>2014-12-05T14:13:16Z</time>
      </trkpt>
      <trkpt lat="46.63076" lon="2.71853">
        <ele>232.3</ele>
        <time>2014-12-05T14:13:33Z</time>
      </trkpt>
      <trkpt lat="46.63089" lon="2.71836">
        <ele>231.33</ele>
        <time>2014-12-05T14:13:49Z</time>
      </trkpt>
      <trkpt lat="46.63101" lon="2.71826">
        <ele>229.89</ele>
        <time>2014-12-05T14:14:05Z</time>
      </trkpt>
      <trkpt lat="46.6311" lon="2.71817">
        <ele>229.41</ele>
        <time>2014-12-05T14:14:13Z</time>
      </trkpt>
      <trkpt lat="46.63133" lon="2.71797">
        <ele>227.49</ele>
        <time>2014-12-05T14:14:33Z</time>
      </trkpt>
      <trkpt lat="46.63151" lon="2.71784">
        <ele>226.53</ele>
        <time>2014-12-05T14:14:49Z</time>
      </trkpt>
      <trkpt lat="46.63166" lon="2.71764">
        <ele>224.61</ele>
        <time>2014-12-05T14:15:05Z</time>
      </trkpt>
      <trkpt lat="46.63178" lon="2.71754">
        <ele>224.12</ele>
        <time>2014-12-05T14:15:16Z</time>
      </trkpt>
      <trkpt lat="46.63195" lon="2.71736">
        <ele>223.16</ele>
        <time>2014-12-05T14:15:32Z</time>
      </trkpt>
      <trkpt lat="46.63214" lon="2.7172">
        <ele>223.16</ele>
        <time>2014-12-05T14:15:47Z</time>
      </trkpt>
      <trkpt lat="46.63223" lon="2.7171">
        <ele>223.16</ele>
        <time>2014-12-05T14:15:57Z</time>
      </trkpt>
      <trkpt lat="46.63232" lon="2.71702">
        <ele>223.16</ele>
        <time>2014-12-05T14:16:06Z</time>
      </trkpt>
      <trkpt lat="46.63249" lon="2.71688">
        <ele>223.16</ele>
        <time>2014-12-05T14:16:23Z</time>
      </trkpt>
      <trkpt lat="46.63262" lon="2.71698">
        <ele>223.16</ele>
        <time>2014-12-05T14:16:38Z</time>
      </trkpt>
      <trkpt lat="46.6327" lon="2.71716">
        <ele>222.2</ele>
        <time>2014-12-05T14:16:55Z</time>
      </trkpt>
      <trkpt lat="46.63281" lon="2.71737">
        <ele>221.72</ele>
        <time>2014-12-05T14:17:13Z</time>
      </trkpt>
      <trkpt lat="46.63288" lon="2.71754">
        <ele>221.72</ele>
        <time>2014-12-05T14:17:32Z</time>
      </trkpt>
      <trkpt lat="46.63279" lon="2.71774">
        <ele>222.68</ele>
        <time>2014-12-05T14:18:05Z</time>
      </trkpt>
      <trkpt lat="46.63281" lon="2.71792">
        <ele>226.05</ele>
        <time>2014-12-05T14:18:23Z</time>
      </trkpt>
      <trkpt lat="46.63285" lon="2.7181">
        <ele>227.49</ele>
        <time>2014-12-05T14:18:39Z</time>
      </trkpt>
      <trkpt lat="46.63284" lon="2.71826">
        <ele>229.89</ele>
        <time>2014-12-05T14:18:55Z</time>
      </trkpt>
      <trkpt lat="46.63287" lon="2.71844">
        <ele>231.33</ele>
        <time>2014-12-05T14:19:11Z</time>
      </trkpt>
      <trkpt lat="46.63298" lon="2.71848">
        <ele>231.33</ele>
        <time>2014-12-05T14:19:25Z</time>
      </trkpt>
      <trkpt lat="46.63323" lon="2.71847">
        <ele>229.41</ele>
        <time>2014-12-05T14:19:47Z</time>
      </trkpt>
      <trkpt lat="46.63339" lon="2.71842">
        <ele>227.97</ele>
        <time>2014-12-05T14:20:03Z</time>
      </trkpt>
      <trkpt lat="46.63356" lon="2.71839">
        <ele>227.01</ele>
        <time>2014-12-05T14:20:17Z</time>
      </trkpt>
      <trkpt lat="46.63381" lon="2.71838">
        <ele>226.53</ele>
        <time>2014-12-05T14:22:21Z</time>
      </trkpt>
      <trkpt lat="46.63393" lon="2.71829">
        <ele>224.61</ele>
        <time>2014-12-05T14:22:37Z</time>
      </trkpt>
      <trkpt lat="46.63404" lon="2.7183">
        <ele>224.61</ele>
        <time>2014-12-05T14:22:52Z</time>
      </trkpt>
      <trkpt lat="46.63421" lon="2.71842">
        <ele>224.12</ele>
        <time>2014-12-05T14:23:09Z</time>
      </trkpt>
      <trkpt lat="46.63437" lon="2.71868">
        <ele>224.12</ele>
        <time>2014-12-05T14:23:29Z</time>
      </trkpt>
      <trkpt lat="46.63446" lon="2.7189">
        <ele>223.64</ele>
        <time>2014-12-05T14:23:43Z</time>
      </trkpt>
      <trkpt lat="46.63456" lon="2.71909">
        <ele>221.72</ele>
        <time>2014-12-05T14:23:59Z</time>
      </trkpt>
      <trkpt lat="46.6348" lon="2.71887">
        <ele>220.76</ele>
        <time>2014-12-05T14:24:30Z</time>
      </trkpt>
      <trkpt lat="46.63486" lon="2.71873">
        <ele>219.32</ele>
        <time>2014-12-05T14:26:27Z</time>
      </trkpt>
      <trkpt lat="46.63481" lon="2.71858">
        <ele>220.76</ele>
        <time>2014-12-05T14:26:43Z</time>
      </trkpt>
      <trkpt lat="46.63477" lon="2.71839">
        <ele>220.76</ele>
        <time>2014-12-05T14:26:57Z</time>
      </trkpt>
      <trkpt lat="46.63467" lon="2.71825">
        <ele>220.76</ele>
        <time>2014-12-05T14:27:12Z</time>
      </trkpt>
      <trkpt lat="46.63456" lon="2.71813">
        <ele>219.32</ele>
        <time>2014-12-05T14:27:28Z</time>
      </trkpt>
      <trkpt lat="46.63445" lon="2.71809">
        <ele>219.32</ele>
        <time>2014-12-05T14:27:41Z</time>
      </trkpt>
      <trkpt lat="46.63432" lon="2.71799">
        <ele>219.32</ele>
        <time>2014-12-05T14:27:56Z</time>
      </trkpt>
      <trkpt lat="46.63412" lon="2.71796">
        <ele>219.32</ele>
        <time>2014-12-05T14:28:23Z</time>
      </trkpt>
      <trkpt lat="46.63402" lon="2.71794">
        <ele>218.84</ele>
        <time>2014-12-05T14:29:07Z</time>
      </trkpt>
      <trkpt lat="46.63399" lon="2.7177">
        <ele>218.84</ele>
        <time>2014-12-05T14:30:14Z</time>
      </trkpt>
      <trkpt lat="46.63396" lon="2.71755">
        <ele>218.84</ele>
        <time>2014-12-05T14:30:28Z</time>
      </trkpt>
      <trkpt lat="46.63402" lon="2.71738">
        <ele>218.84</ele>
        <time>2014-12-05T14:30:43Z</time>
      </trkpt>
      <trkpt lat="46.63415" lon="2.71735">
        <ele>218.84</ele>
        <time>2014-12-05T14:30:57Z</time>
      </trkpt>
      <trkpt lat="46.63438" lon="2.7174">
        <ele>220.28</ele>
        <time>2014-12-05T14:31:17Z</time>
      </trkpt>
      <trkpt lat="46.63456" lon="2.71748">
        <ele>220.28</ele>
        <time>2014-12-05T14:31:32Z</time>
      </trkpt>
      <trkpt lat="46.63476" lon="2.71759">
        <ele>220.28</ele>
        <time>2014-12-05T14:31:47Z</time>
      </trkpt>
      <trkpt lat="46.63495" lon="2.71765">
        <ele>220.28</ele>
        <time>2014-12-05T14:32:02Z</time>
      </trkpt>
      <trkpt lat="46.63514" lon="2.71769">
        <ele>220.28</ele>
        <time>2014-12-05T14:32:18Z</time>
      </trkpt>
      <trkpt lat="46.63534" lon="2.71772">
        <ele>220.28</ele>
        <time>2014-12-05T14:32:33Z</time>
      </trkpt>
      <trkpt lat="46.63544" lon="2.71774">
        <ele>220.28</ele>
        <time>2014-12-05T14:32:41Z</time>
      </trkpt>
      <trkpt lat="46.63561" lon="2.71776">
        <ele>220.28</ele>
        <time>2014-12-05T14:32:56Z</time>
      </trkpt>
      <trkpt lat="46.63576" lon="2.71783">
        <ele>220.28</ele>
        <time>2014-12-05T14:33:11Z</time>
      </trkpt>
      <trkpt lat="46.63585" lon="2.7179">
        <ele>220.28</ele>
        <time>2014-12-05T14:33:19Z</time>
      </trkpt>
      <trkpt lat="46.63607" lon="2.7179">
        <ele>218.36</ele>
        <time>2014-12-05T14:33:40Z</time>
      </trkpt>
      <trkpt lat="46.6361" lon="2.7179">
        <ele>218.84</ele>
        <time>2014-12-05T14:34:48Z</time>
      </trkpt>
      <trkpt lat="46.63628" lon="2.71781">
        <ele>219.8</ele>
        <time>2014-12-05T14:35:22Z</time>
      </trkpt>
      <trkpt lat="46.63641" lon="2.71785">
        <ele>219.8</ele>
        <time>2014-12-05T14:35:35Z</time>
      </trkpt>
      <trkpt lat="46.63663" lon="2.71792">
        <ele>219.8</ele>
        <time>2014-12-05T14:35:52Z</time>
      </trkpt>
      <trkpt lat="46.63679" lon="2.71794">
        <ele>219.8</ele>
        <time>2014-12-05T14:36:07Z</time>
      </trkpt>
      <trkpt lat="46.637" lon="2.71796">
        <ele>219.8</ele>
        <time>2014-12-05T14:36:24Z</time>
      </trkpt>
      <trkpt lat="46.63715" lon="2.71802">
        <ele>219.8</ele>
        <time>2014-12-05T14:36:39Z</time>
      </trkpt>
      <trkpt lat="46.63731" lon="2.71798">
        <ele>219.8</ele>
        <time>2014-12-05T14:37:06Z</time>
      </trkpt>
      <trkpt lat="46.63753" lon="2.71801">
        <ele>219.8</ele>
        <time>2014-12-05T14:37:25Z</time>
      </trkpt>
      <trkpt lat="46.63772" lon="2.71806">
        <ele>219.8</ele>
        <time>2014-12-05T14:37:43Z</time>
      </trkpt>
      <trkpt lat="46.63789" lon="2.71813">
        <ele>220.28</ele>
        <time>2014-12-05T14:37:58Z</time>
      </trkpt>
      <trkpt lat="46.63799" lon="2.71817">
        <ele>220.28</ele>
        <time>2014-12-05T14:38:06Z</time>
      </trkpt>
      <trkpt lat="46.63815" lon="2.71815">
        <ele>220.28</ele>
        <time>2014-12-05T14:38:17Z</time>
      </trkpt>
      <trkpt lat="46.63833" lon="2.71803">
        <ele>221.24</ele>
        <time>2014-12-05T14:38:34Z</time>
      </trkpt>
      <trkpt lat="46.63853" lon="2.71796">
        <ele>222.2</ele>
        <time>2014-12-05T14:38:49Z</time>
      </trkpt>
      <trkpt lat="46.63863" lon="2.71794">
        <ele>222.68</ele>
        <time>2014-12-05T14:39:00Z</time>
      </trkpt>
      <trkpt lat="46.6389" lon="2.71778">
        <ele>223.64</ele>
        <time>2014-12-05T14:39:21Z</time>
      </trkpt>
      <trkpt lat="46.63907" lon="2.71771">
        <ele>223.64</ele>
        <time>2014-12-05T14:40:01Z</time>
      </trkpt>
      <trkpt lat="46.63925" lon="2.71757">
        <ele>223.64</ele>
        <time>2014-12-05T14:40:17Z</time>
      </trkpt>
      <trkpt lat="46.63938" lon="2.71746">
        <ele>223.64</ele>
        <time>2014-12-05T14:40:29Z</time>
      </trkpt>
      <trkpt lat="46.6396" lon="2.7173">
        <ele>221.72</ele>
        <time>2014-12-05T14:40:48Z</time>
      </trkpt>
      <trkpt lat="46.63969" lon="2.71725">
        <ele>221.24</ele>
        <time>2014-12-05T14:41:01Z</time>
      </trkpt>
      <trkpt lat="46.63989" lon="2.71708">
        <ele>220.28</ele>
        <time>2014-12-05T14:41:23Z</time>
      </trkpt>
      <trkpt lat="46.63992" lon="2.71699">
        <ele>219.8</ele>
        <time>2014-12-05T14:42:06Z</time>
      </trkpt>
      <trkpt lat="46.64015" lon="2.71687">
        <ele>219.32</ele>
        <time>2014-12-05T14:42:24Z</time>
      </trkpt>
      <trkpt lat="46.64033" lon="2.71674">
        <ele>218.84</ele>
        <time>2014-12-05T14:42:40Z</time>
      </trkpt>
      <trkpt lat="46.64053" lon="2.71662">
        <ele>218.36</ele>
        <time>2014-12-05T14:42:58Z</time>
      </trkpt>
      <trkpt lat="46.64062" lon="2.71684">
        <ele>218.36</ele>
        <time>2014-12-05T14:43:21Z</time>
      </trkpt>
      <trkpt lat="46.64061" lon="2.71701">
        <ele>217.88</ele>
        <time>2014-12-05T14:43:47Z</time>
      </trkpt>
      <trkpt lat="46.64064" lon="2.71718">
        <ele>216.91</ele>
        <time>2014-12-05T14:44:01Z</time>
      </trkpt>
      <trkpt lat="46.64066" lon="2.71747">
        <ele>216.43</ele>
        <time>2014-12-05T14:44:23Z</time>
      </trkpt>
      <trkpt lat="46.64071" lon="2.7176">
        <ele>216.43</ele>
        <time>2014-12-05T14:44:35Z</time>
      </trkpt>
      <trkpt lat="46.64074" lon="2.71792">
        <ele>216.43</ele>
        <time>2014-12-05T14:44:55Z</time>
      </trkpt>
      <trkpt lat="46.64078" lon="2.71821">
        <ele>216.43</ele>
        <time>2014-12-05T14:45:13Z</time>
      </trkpt>
      <trkpt lat="46.64079" lon="2.71835">
        <ele>216.43</ele>
        <time>2014-12-05T14:45:27Z</time>
      </trkpt>
      <trkpt lat="46.64083" lon="2.71863">
        <ele>216.43</ele>
        <time>2014-12-05T14:45:44Z</time>
      </trkpt>
      <trkpt lat="46.64085" lon="2.71893">
        <ele>217.4</ele>
        <time>2014-12-05T14:46:01Z</time>
      </trkpt>
      <trkpt lat="46.64089" lon="2.71916">
        <ele>217.88</ele>
        <time>2014-12-05T14:46:14Z</time>
      </trkpt>
      <trkpt lat="46.64095" lon="2.71959">
        <ele>218.84</ele>
        <time>2014-12-05T14:46:37Z</time>
      </trkpt>
      <trkpt lat="46.64097" lon="2.7198">
        <ele>219.8</ele>
        <time>2014-12-05T14:46:52Z</time>
      </trkpt>
      <trkpt lat="46.64099" lon="2.7201">
        <ele>219.8</ele>
        <time>2014-12-05T14:47:09Z</time>
      </trkpt>
      <trkpt lat="46.64103" lon="2.72038">
        <ele>219.8</ele>
        <time>2014-12-05T14:47:26Z</time>
      </trkpt>
      <trkpt lat="46.641" lon="2.72054">
        <ele>220.76</ele>
        <time>2014-12-05T14:49:22Z</time>
      </trkpt>
      <trkpt lat="46.64104" lon="2.72072">
        <ele>220.76</ele>
        <time>2014-12-05T14:49:35Z</time>
      </trkpt>
      <trkpt lat="46.64106" lon="2.7209">
        <ele>220.76</ele>
        <time>2014-12-05T14:49:45Z</time>
      </trkpt>
      <trkpt lat="46.64111" lon="2.72127">
        <ele>220.76</ele>
        <time>2014-12-05T14:50:05Z</time>
      </trkpt>
      <trkpt lat="46.64114" lon="2.72152">
        <ele>220.76</ele>
        <time>2014-12-05T14:50:27Z</time>
      </trkpt>
      <trkpt lat="46.64093" lon="2.72175">
        <ele>220.76</ele>
        <time>2014-12-05T14:50:49Z</time>
      </trkpt>
      <trkpt lat="46.6408" lon="2.72188">
        <ele>220.76</ele>
        <time>2014-12-05T14:51:05Z</time>
      </trkpt>
      <trkpt lat="46.64069" lon="2.72198">
        <ele>220.28</ele>
        <time>2014-12-05T14:51:32Z</time>
      </trkpt>
      <trkpt lat="46.64054" lon="2.7221">
        <ele>220.28</ele>
        <time>2014-12-05T14:51:48Z</time>
      </trkpt>
      <trkpt lat="46.64038" lon="2.72228">
        <ele>220.28</ele>
        <time>2014-12-05T14:52:05Z</time>
      </trkpt>
      <trkpt lat="46.64011" lon="2.72254">
        <ele>231.5</ele>
      </trkpt>
      <trkpt lat="46.64004" lon="2.72274">
        <ele>232.2</ele>
      </trkpt>
      <trkpt lat="46.64004" lon="2.72288">
        <ele>221.24</ele>
        <time>2014-12-05T14:52:15Z</time>
      </trkpt>
    </trkseg>
  </trk>
</gpx>